CMA CGM Balzac — DIHN — position and weather

sailwx.info

Track history (hours):
 
Tides and Currents Weather Stations Pressure Air Temp Water Temp Dewpoint Dewpoint Depression Visibility Wind Speed Wind Dir Waves Ship Positions

CMA CGM Balzac

Last reported at 2016-Apr-29 00:21 UTC. Time now 2016-May-04 01:48 UTC.
Position S 34°59' E 138°17'.

Length 300.3 m; beam 40.3 m; draft 14 m.

Type: Ship. MMSI: 211378810.

Date/timePositionNaut miles runAvg speedWind from/ knotsBaromVisibWave heightAir tempDewpointWater temp
2016-Apr-29 00:21S 34°59' E 138°17'9 8.5
2016-Apr-28 23:19S 35°07' E 138°14'28012.9
2016-Apr-28 01:33S 38°44' E 141°56'1514.8
2016-Apr-28 00:30S 38°47' E 142°15'1514.7
2016-Apr-27 23:27S 38°50' E 142°35'139 3.2
2016-Apr-26 04:12S 38°55' E 145°33'1218.9
2016-Apr-26 03:33S 39°01' E 145°47'1918.9
2016-Apr-26 02:34S 39°10' E 146°08'1918.7
2016-Apr-26 01:33S 39°09' E 146°32'2020.1
2016-Apr-26 00:34S 39°02' E 146°57'2019.9
2016-Apr-25 23:34S 38°56' E 147°21'2221.8
2016-Apr-25 22:33S 38°49' E 147°48'1615.8
2016-Apr-25 21:31S 38°44' E 148°08'5 4.8
2016-Apr-25 20:33S 38°42' E 148°13'1414.1
2016-Apr-25 19:33S 38°35' E 148°28'1919.0
2016-Apr-25 18:33S 38°24' E 148°48'1919.0
2016-Apr-25 17:34S 38°13' E 149°08'2019.5
2016-Apr-25 16:33S 38°03' E 149°29'2019.6
2016-Apr-25 15:33S 37°52' E 149°49'2019.9
2016-Apr-25 14:33S 37°40' E 150°10'2019.5
2016-Apr-25 13:33S 37°22' E 150°17'2019.7
2016-Apr-25 12:34S 37°03' E 150°23'2019.7
2016-Apr-25 11:33S 36°43' E 150°29'2019.7
2016-Apr-25 10:34S 36°24' E 150°35'2019.7
2016-Apr-25 09:33S 36°05' E 150°41'2019.6
2016-Apr-25 08:31S 35°45' E 150°47'  
2016-Apr-22 11:22S 37°11' E 150°21'1416.9
2016-Apr-22 10:33S 37°24' E 150°16'1716.5
2016-Apr-22 09:33S 37°40' E 150°10'1716.6
2016-Apr-22 08:32S 37°51' E 149°54'13516.9
2016-Apr-22 00:33S 39°01' E 147°26'1717.1
2016-Apr-21 23:33S 39°06' E 147°05'2120.9
2016-Apr-21 22:33S 39°14' E 146°40'2019.6
2016-Apr-21 21:33S 39°16' E 146°15'1716.8
2016-Apr-21 20:33S 39°16' E 145°54'  
Track history (hours):
 
Tides and Currents Weather Stations Pressure Air Temp Water Temp Dewpoint Dewpoint Depression Visibility Wind Speed Wind Dir Waves Ship Positions

CMA CGM Balzac

Last reported at 2016-Apr-29 00:21 UTC. Time now 2016-May-04 01:48 UTC.
Position S 34°59' E 138°17'.

Length 300.3 m; beam 40.3 m; draft 14 m.

Type: Ship. MMSI: 211378810.

Date/timePositionNaut miles runAvg speedWind from/ knotsBaromVisibWave heightAir tempDewpointWater temp
2016-Apr-29 00:21S 34°59' E 138°17'9 8.5
2016-Apr-28 23:19S 35°07' E 138°14'28012.9
2016-Apr-28 01:33S 38°44' E 141°56'1514.8
2016-Apr-28 00:30S 38°47' E 142°15'1514.7
2016-Apr-27 23:27S 38°50' E 142°35'139 3.2
2016-Apr-26 04:12S 38°55' E 145°33'1218.9
2016-Apr-26 03:33S 39°01' E 145°47'1918.9
2016-Apr-26 02:34S 39°10' E 146°08'1918.7
2016-Apr-26 01:33S 39°09' E 146°32'2020.1
2016-Apr-26 00:34S 39°02' E 146°57'2019.9
2016-Apr-25 23:34S 38°56' E 147°21'2221.8
2016-Apr-25 22:33S 38°49' E 147°48'1615.8
2016-Apr-25 21:31S 38°44' E 148°08'5 4.8
2016-Apr-25 20:33S 38°42' E 148°13'1414.1
2016-Apr-25 19:33S 38°35' E 148°28'1919.0
2016-Apr-25 18:33S 38°24' E 148°48'1919.0
2016-Apr-25 17:34S 38°13' E 149°08'2019.5
2016-Apr-25 16:33S 38°03' E 149°29'2019.6
2016-Apr-25 15:33S 37°52' E 149°49'2019.9
2016-Apr-25 14:33S 37°40' E 150°10'2019.5
2016-Apr-25 13:33S 37°22' E 150°17'2019.7
2016-Apr-25 12:34S 37°03' E 150°23'2019.7
2016-Apr-25 11:33S 36°43' E 150°29'2019.7
2016-Apr-25 10:34S 36°24' E 150°35'2019.7
2016-Apr-25 09:33S 36°05' E 150°41'2019.6
2016-Apr-25 08:31S 35°45' E 150°47'  
2016-Apr-22 11:22S 37°11' E 150°21'1416.9
2016-Apr-22 10:33S 37°24' E 150°16'1716.5
2016-Apr-22 09:33S 37°40' E 150°10'1716.6
2016-Apr-22 08:32S 37°51' E 149°54'13516.9
2016-Apr-22 00:33S 39°01' E 147°26'1717.1
2016-Apr-21 23:33S 39°06' E 147°05'2120.9
2016-Apr-21 22:33S 39°14' E 146°40'2019.6
2016-Apr-21 21:33S 39°16' E 146°15'1716.8
2016-Apr-21 20:33S 39°16' E 145°54'  

Dump ship's entire track history